sensor_id;sensor_type;location;lat;lon;timestamp;P1;durP1;ratioP1;P2;durP2;ratioP2
21643;SDS011;10983;51.982;9.226;2022-12-07T00:01:05;2.88;;;2.55;;
21643;SDS011;10983;51.982;9.226;2022-12-07T00:03:34;1.40;;;1.40;;
21643;SDS011;10983;51.982;9.226;2022-12-07T00:06:02;2.22;;;2.13;;
21643;SDS011;10983;51.982;9.226;2022-12-07T00:08:31;1.95;;;1.83;;
21643;SDS011;10983;51.982;9.226;2022-12-07T00:11:00;1.58;;;1.52;;
21643;SDS011;10983;51.982;9.226;2022-12-07T00:13:30;0.95;;;0.95;;
21643;SDS011;10983;51.982;9.226;2022-12-07T00:15:59;1.52;;;1.23;;
21643;SDS011;10983;51.982;9.226;2022-12-07T00:18:29;1.00;;;0.75;;
21643;SDS011;10983;51.982;9.226;2022-12-07T00:21:00;2.90;;;2.20;;
21643;SDS011;10983;51.982;9.226;2022-12-07T00:23:28;1.27;;;1.27;;
21643;SDS011;10983;51.982;9.226;2022-12-07T00:26:02;0.45;;;0.45;;
21643;SDS011;10983;51.982;9.226;2022-12-07T00:28:32;0.28;;;0.28;;
21643;SDS011;10983;51.982;9.226;2022-12-07T00:31:04;0.20;;;0.20;;
21643;SDS011;10983;51.982;9.226;2022-12-07T00:36:01;0.30;;;0.30;;
21643;SDS011;10983;51.982;9.226;2022-12-07T00:38:31;0.68;;;0.68;;
21643;SDS011;10983;51.982;9.226;2022-12-07T00:41:00;0.93;;;0.93;;
21643;SDS011;10983;51.982;9.226;2022-12-07T00:43:29;1.08;;;1.02;;
21643;SDS011;10983;51.982;9.226;2022-12-07T00:45:59;2.13;;;2.03;;
21643;SDS011;10983;51.982;9.226;2022-12-07T00:48:27;1.90;;;1.80;;
21643;SDS011;10983;51.982;9.226;2022-12-07T00:50:55;0.88;;;0.88;;
21643;SDS011;10983;51.982;9.226;2022-12-07T00:53:23;1.80;;;1.75;;
21643;SDS011;10983;51.982;9.226;2022-12-07T00:55:52;1.23;;;1.20;;
21643;SDS011;10983;51.982;9.226;2022-12-07T00:58:21;5.15;;;2.97;;
21643;SDS011;10983;51.982;9.226;2022-12-07T01:00:49;1.48;;;1.42;;
21643;SDS011;10983;51.982;9.226;2022-12-07T01:03:18;5.93;;;5.25;;
21643;SDS011;10983;51.982;9.226;2022-12-07T01:05:49;1.80;;;1.60;;
21643;SDS011;10983;51.982;9.226;2022-12-07T01:08:18;7.03;;;6.17;;
21643;SDS011;10983;51.982;9.226;2022-12-07T01:10:46;3.50;;;3.22;;
21643;SDS011;10983;51.982;9.226;2022-12-07T01:13:15;3.05;;;2.65;;
21643;SDS011;10983;51.982;9.226;2022-12-07T01:15:43;4.47;;;3.92;;
21643;SDS011;10983;51.982;9.226;2022-12-07T01:18:11;5.10;;;4.65;;
21643;SDS011;10983;51.982;9.226;2022-12-07T01:20:40;7.00;;;6.13;;
21643;SDS011;10983;51.982;9.226;2022-12-07T01:23:08;4.10;;;2.90;;
21643;SDS011;10983;51.982;9.226;2022-12-07T01:25:36;3.33;;;3.13;;
21643;SDS011;10983;51.982;9.226;2022-12-07T01:28:03;1.02;;;1.02;;
21643;SDS011;10983;51.982;9.226;2022-12-07T01:30:31;1.15;;;1.15;;
21643;SDS011;10983;51.982;9.226;2022-12-07T01:32:59;4.60;;;4.22;;
21643;SDS011;10983;51.982;9.226;2022-12-07T01:35:26;9.40;;;6.88;;
21643;SDS011;10983;51.982;9.226;2022-12-07T01:37:55;15.82;;;10.77;;
21643;SDS011;10983;51.982;9.226;2022-12-07T01:40:23;21.95;;;7.35;;
21643;SDS011;10983;51.982;9.226;2022-12-07T01:42:51;12.25;;;7.68;;
21643;SDS011;10983;51.982;9.226;2022-12-07T01:45:37;9.55;;;7.28;;
21643;SDS011;10983;51.982;9.226;2022-12-07T01:48:06;12.55;;;11.25;;
21643;SDS011;10983;51.982;9.226;2022-12-07T01:50:34;7.43;;;5.88;;
21643;SDS011;10983;51.982;9.226;2022-12-07T01:53:05;13.98;;;12.32;;
21643;SDS011;10983;51.982;9.226;2022-12-07T01:55:37;16.05;;;12.57;;
21643;SDS011;10983;51.982;9.226;2022-12-07T01:58:07;14.50;;;10.27;;
21643;SDS011;10983;51.982;9.226;2022-12-07T02:00:35;10.23;;;8.25;;
21643;SDS011;10983;51.982;9.226;2022-12-07T02:03:04;8.20;;;7.43;;
21643;SDS011;10983;51.982;9.226;2022-12-07T02:05:35;15.07;;;13.40;;
21643;SDS011;10983;51.982;9.226;2022-12-07T02:08:07;7.93;;;7.13;;
21643;SDS011;10983;51.982;9.226;2022-12-07T02:10:35;14.70;;;9.93;;
21643;SDS011;10983;51.982;9.226;2022-12-07T02:13:04;14.30;;;12.73;;
21643;SDS011;10983;51.982;9.226;2022-12-07T02:15:39;10.25;;;6.95;;
21643;SDS011;10983;51.982;9.226;2022-12-07T02:18:19;12.20;;;8.38;;
21643;SDS011;10983;51.982;9.226;2022-12-07T02:20:54;9.50;;;7.93;;
21643;SDS011;10983;51.982;9.226;2022-12-07T02:23:41;19.70;;;15.82;;
21643;SDS011;10983;51.982;9.226;2022-12-07T02:26:44;24.52;;;12.68;;
21643;SDS011;10983;51.982;9.226;2022-12-07T02:29:25;11.80;;;9.52;;
21643;SDS011;10983;51.982;9.226;2022-12-07T02:32:00;14.00;;;11.10;;
21643;SDS011;10983;51.982;9.226;2022-12-07T02:34:39;20.67;;;11.02;;
21643;SDS011;10983;51.982;9.226;2022-12-07T02:37:14;13.95;;;11.48;;
21643;SDS011;10983;51.982;9.226;2022-12-07T02:39:52;13.93;;;10.05;;
21643;SDS011;10983;51.982;9.226;2022-12-07T02:42:30;3.40;;;3.10;;
21643;SDS011;10983;51.982;9.226;2022-12-07T02:45:05;15.93;;;10.23;;
21643;SDS011;10983;51.982;9.226;2022-12-07T02:50:07;5.65;;;5.05;;
21643;SDS011;10983;51.982;9.226;2022-12-07T02:52:35;12.77;;;10.18;;
21643;SDS011;10983;51.982;9.226;2022-12-07T02:55:05;11.70;;;6.70;;
21643;SDS011;10983;51.982;9.226;2022-12-07T02:57:40;12.02;;;8.52;;
21643;SDS011;10983;51.982;9.226;2022-12-07T03:00:18;12.10;;;9.32;;
21643;SDS011;10983;51.982;9.226;2022-12-07T03:02:50;15.38;;;8.82;;
21643;SDS011;10983;51.982;9.226;2022-12-07T03:05:35;16.27;;;9.00;;
21643;SDS011;10983;51.982;9.226;2022-12-07T03:08:15;9.95;;;6.60;;
21643;SDS011;10983;51.982;9.226;2022-12-07T03:10:56;8.60;;;6.85;;
21643;SDS011;10983;51.982;9.226;2022-12-07T03:13:28;10.70;;;7.97;;
21643;SDS011;10983;51.982;9.226;2022-12-07T03:16:07;14.48;;;9.30;;
21643;SDS011;10983;51.982;9.226;2022-12-07T03:18:40;17.67;;;13.10;;
21643;SDS011;10983;51.982;9.226;2022-12-07T03:21:13;9.82;;;5.88;;
21643;SDS011;10983;51.982;9.226;2022-12-07T03:23:49;12.70;;;9.13;;
21643;SDS011;10983;51.982;9.226;2022-12-07T03:26:24;9.68;;;7.55;;
21643;SDS011;10983;51.982;9.226;2022-12-07T03:28:59;21.00;;;10.15;;
21643;SDS011;10983;51.982;9.226;2022-12-07T03:31:34;12.57;;;8.80;;
21643;SDS011;10983;51.982;9.226;2022-12-07T03:34:07;12.13;;;8.98;;
21643;SDS011;10983;51.982;9.226;2022-12-07T03:36:40;8.52;;;6.18;;
21643;SDS011;10983;51.982;9.226;2022-12-07T03:39:16;14.25;;;9.27;;
21643;SDS011;10983;51.982;9.226;2022-12-07T03:41:48;15.40;;;10.45;;
21643;SDS011;10983;51.982;9.226;2022-12-07T03:44:16;14.43;;;9.77;;
21643;SDS011;10983;51.982;9.226;2022-12-07T03:46:48;15.18;;;8.50;;
21643;SDS011;10983;51.982;9.226;2022-12-07T03:49:28;13.27;;;10.25;;
21643;SDS011;10983;51.982;9.226;2022-12-07T03:52:00;17.67;;;9.57;;
21643;SDS011;10983;51.982;9.226;2022-12-07T03:54:34;14.43;;;10.60;;
21643;SDS011;10983;51.982;9.226;2022-12-07T03:57:09;12.85;;;8.07;;
21643;SDS011;10983;51.982;9.226;2022-12-07T03:59:40;20.48;;;10.75;;
21643;SDS011;10983;51.982;9.226;2022-12-07T04:02:11;15.75;;;9.27;;
21643;SDS011;10983;51.982;9.226;2022-12-07T04:04:40;10.05;;;8.77;;
21643;SDS011;10983;51.982;9.226;2022-12-07T04:07:10;5.50;;;4.97;;
21643;SDS011;10983;51.982;9.226;2022-12-07T04:09:39;11.77;;;6.95;;
21643;SDS011;10983;51.982;9.226;2022-12-07T04:12:07;10.70;;;9.07;;
21643;SDS011;10983;51.982;9.226;2022-12-07T04:14:36;17.88;;;6.68;;
21643;SDS011;10983;51.982;9.226;2022-12-07T04:17:03;8.30;;;5.90;;
21643;SDS011;10983;51.982;9.226;2022-12-07T04:19:33;17.20;;;7.10;;
21643;SDS011;10983;51.982;9.226;2022-12-07T04:22:02;4.70;;;4.25;;
21643;SDS011;10983;51.982;9.226;2022-12-07T04:24:31;6.85;;;5.90;;
21643;SDS011;10983;51.982;9.226;2022-12-07T04:26:59;5.95;;;4.28;;
21643;SDS011;10983;51.982;9.226;2022-12-07T04:29:27;8.05;;;6.57;;
21643;SDS011;10983;51.982;9.226;2022-12-07T04:31:55;10.18;;;7.22;;
21643;SDS011;10983;51.982;9.226;2022-12-07T04:34:22;10.77;;;7.43;;
21643;SDS011;10983;51.982;9.226;2022-12-07T04:36:51;6.93;;;5.22;;
21643;SDS011;10983;51.982;9.226;2022-12-07T04:39:20;5.90;;;5.40;;
21643;SDS011;10983;51.982;9.226;2022-12-07T04:41:49;8.02;;;7.22;;
21643;SDS011;10983;51.982;9.226;2022-12-07T04:44:31;14.20;;;7.25;;
21643;SDS011;10983;51.982;9.226;2022-12-07T04:46:58;7.00;;;6.15;;
21643;SDS011;10983;51.982;9.226;2022-12-07T04:49:29;10.77;;;5.75;;
21643;SDS011;10983;51.982;9.226;2022-12-07T04:51:58;2.75;;;2.53;;
21643;SDS011;10983;51.982;9.226;2022-12-07T04:54:27;14.90;;;4.63;;
21643;SDS011;10983;51.982;9.226;2022-12-07T04:56:54;6.78;;;3.95;;
21643;SDS011;10983;51.982;9.226;2022-12-07T04:59:22;7.43;;;4.53;;
21643;SDS011;10983;51.982;9.226;2022-12-07T05:01:50;5.95;;;4.97;;
21643;SDS011;10983;51.982;9.226;2022-12-07T05:04:18;10.73;;;2.90;;
21643;SDS011;10983;51.982;9.226;2022-12-07T05:06:45;6.50;;;4.30;;
21643;SDS011;10983;51.982;9.226;2022-12-07T05:09:15;8.00;;;6.78;;
21643;SDS011;10983;51.982;9.226;2022-12-07T05:11:42;9.43;;;4.45;;
21643;SDS011;10983;51.982;9.226;2022-12-07T05:14:12;2.88;;;2.65;;
21643;SDS011;10983;51.982;9.226;2022-12-07T05:16:41;11.80;;;5.07;;
21643;SDS011;10983;51.982;9.226;2022-12-07T05:19:11;6.22;;;3.53;;
21643;SDS011;10983;51.982;9.226;2022-12-07T05:21:39;7.90;;;4.18;;
21643;SDS011;10983;51.982;9.226;2022-12-07T05:24:09;12.25;;;6.38;;
21643;SDS011;10983;51.982;9.226;2022-12-07T05:26:41;6.13;;;4.30;;
21643;SDS011;10983;51.982;9.226;2022-12-07T05:29:10;4.20;;;3.85;;
21643;SDS011;10983;51.982;9.226;2022-12-07T05:31:39;5.35;;;4.78;;
21643;SDS011;10983;51.982;9.226;2022-12-07T05:34:08;4.13;;;3.72;;
21643;SDS011;10983;51.982;9.226;2022-12-07T05:36:36;3.85;;;3.45;;
21643;SDS011;10983;51.982;9.226;2022-12-07T05:39:04;4.47;;;3.42;;
21643;SDS011;10983;51.982;9.226;2022-12-07T05:41:31;5.25;;;3.92;;
21643;SDS011;10983;51.982;9.226;2022-12-07T05:44:19;6.82;;;4.47;;
21643;SDS011;10983;51.982;9.226;2022-12-07T05:46:46;3.08;;;2.55;;
21643;SDS011;10983;51.982;9.226;2022-12-07T05:49:14;9.70;;;4.38;;
21643;SDS011;10983;51.982;9.226;2022-12-07T05:51:41;4.57;;;4.10;;
21643;SDS011;10983;51.982;9.226;2022-12-07T05:54:09;4.93;;;3.80;;
21643;SDS011;10983;51.982;9.226;2022-12-07T05:56:37;3.63;;;2.83;;
21643;SDS011;10983;51.982;9.226;2022-12-07T05:59:04;22.95;;;4.90;;
21643;SDS011;10983;51.982;9.226;2022-12-07T06:01:53;5.07;;;3.65;;
21643;SDS011;10983;51.982;9.226;2022-12-07T06:04:22;3.38;;;3.08;;
21643;SDS011;10983;51.982;9.226;2022-12-07T06:06:51;3.10;;;2.85;;
21643;SDS011;10983;51.982;9.226;2022-12-07T06:09:19;1.73;;;1.63;;
21643;SDS011;10983;51.982;9.226;2022-12-07T06:11:48;3.42;;;3.03;;
21643;SDS011;10983;51.982;9.226;2022-12-07T06:14:34;2.85;;;2.47;;
21643;SDS011;10983;51.982;9.226;2022-12-07T06:17:03;8.93;;;5.22;;
21643;SDS011;10983;51.982;9.226;2022-12-07T06:19:31;1.60;;;1.58;;
21643;SDS011;10983;51.982;9.226;2022-12-07T06:21:59;3.45;;;2.90;;
21643;SDS011;10983;51.982;9.226;2022-12-07T06:24:27;9.70;;;6.50;;
21643;SDS011;10983;51.982;9.226;2022-12-07T06:26:54;2.38;;;2.17;;
21643;SDS011;10983;51.982;9.226;2022-12-07T06:29:22;5.68;;;3.20;;
21643;SDS011;10983;51.982;9.226;2022-12-07T06:31:51;2.80;;;2.60;;
21643;SDS011;10983;51.982;9.226;2022-12-07T06:34:21;6.38;;;4.70;;
21643;SDS011;10983;51.982;9.226;2022-12-07T06:36:50;1.52;;;1.42;;
21643;SDS011;10983;51.982;9.226;2022-12-07T06:39:20;16.52;;;4.85;;
21643;SDS011;10983;51.982;9.226;2022-12-07T06:41:50;17.20;;;4.40;;
21643;SDS011;10983;51.982;9.226;2022-12-07T06:44:20;3.95;;;2.92;;
21643;SDS011;10983;51.982;9.226;2022-12-07T06:46:48;5.47;;;4.30;;
21643;SDS011;10983;51.982;9.226;2022-12-07T06:49:20;5.97;;;3.75;;
21643;SDS011;10983;51.982;9.226;2022-12-07T06:51:48;6.43;;;4.40;;
21643;SDS011;10983;51.982;9.226;2022-12-07T06:54:16;4.20;;;3.80;;
21643;SDS011;10983;51.982;9.226;2022-12-07T06:56:44;9.57;;;4.60;;
21643;SDS011;10983;51.982;9.226;2022-12-07T06:59:12;10.07;;;5.15;;
21643;SDS011;10983;51.982;9.226;2022-12-07T07:01:40;8.65;;;4.57;;
21643;SDS011;10983;51.982;9.226;2022-12-07T07:04:07;8.70;;;4.85;;
21643;SDS011;10983;51.982;9.226;2022-12-07T07:06:39;9.18;;;4.05;;
21643;SDS011;10983;51.982;9.226;2022-12-07T07:09:07;11.05;;;4.60;;
21643;SDS011;10983;51.982;9.226;2022-12-07T07:11:37;5.40;;;4.68;;
21643;SDS011;10983;51.982;9.226;2022-12-07T07:14:05;8.48;;;4.60;;
21643;SDS011;10983;51.982;9.226;2022-12-07T07:16:32;6.57;;;5.22;;
21643;SDS011;10983;51.982;9.226;2022-12-07T07:19:00;6.05;;;4.03;;
21643;SDS011;10983;51.982;9.226;2022-12-07T07:21:28;4.10;;;3.78;;
21643;SDS011;10983;51.982;9.226;2022-12-07T07:23:57;7.28;;;4.97;;
21643;SDS011;10983;51.982;9.226;2022-12-07T07:26:24;3.25;;;2.85;;
21643;SDS011;10983;51.982;9.226;2022-12-07T07:28:52;3.00;;;2.75;;
21643;SDS011;10983;51.982;9.226;2022-12-07T07:31:19;5.20;;;3.20;;
21643;SDS011;10983;51.982;9.226;2022-12-07T07:33:47;12.52;;;6.15;;
21643;SDS011;10983;51.982;9.226;2022-12-07T07:36:15;6.35;;;4.53;;
21643;SDS011;10983;51.982;9.226;2022-12-07T07:38:43;9.40;;;6.13;;
21643;SDS011;10983;51.982;9.226;2022-12-07T07:41:13;6.28;;;4.65;;
21643;SDS011;10983;51.982;9.226;2022-12-07T07:43:40;2.90;;;2.42;;
21643;SDS011;10983;51.982;9.226;2022-12-07T07:46:08;6.32;;;5.55;;
21643;SDS011;10983;51.982;9.226;2022-12-07T07:48:36;7.47;;;5.70;;
21643;SDS011;10983;51.982;9.226;2022-12-07T07:51:04;9.00;;;3.97;;
21643;SDS011;10983;51.982;9.226;2022-12-07T07:53:33;2.92;;;2.67;;
21643;SDS011;10983;51.982;9.226;2022-12-07T07:56:00;4.05;;;3.67;;
21643;SDS011;10983;51.982;9.226;2022-12-07T07:58:29;5.47;;;4.20;;
21643;SDS011;10983;51.982;9.226;2022-12-07T08:00:57;4.43;;;4.03;;
21643;SDS011;10983;51.982;9.226;2022-12-07T08:03:30;3.53;;;2.35;;
21643;SDS011;10983;51.982;9.226;2022-12-07T08:05:58;7.00;;;3.70;;
21643;SDS011;10983;51.982;9.226;2022-12-07T08:08:26;2.33;;;2.10;;
21643;SDS011;10983;51.982;9.226;2022-12-07T08:10:53;8.00;;;4.25;;
21643;SDS011;10983;51.982;9.226;2022-12-07T08:13:21;2.85;;;2.65;;
21643;SDS011;10983;51.982;9.226;2022-12-07T08:16:01;8.43;;;3.75;;
21643;SDS011;10983;51.982;9.226;2022-12-07T08:18:34;4.25;;;3.10;;
21643;SDS011;10983;51.982;9.226;2022-12-07T08:21:02;19.35;;;5.30;;
21643;SDS011;10983;51.982;9.226;2022-12-07T08:23:31;7.10;;;3.08;;
21643;SDS011;10983;51.982;9.226;2022-12-07T08:26:06;3.70;;;3.40;;
21643;SDS011;10983;51.982;9.226;2022-12-07T08:28:36;11.45;;;7.00;;
21643;SDS011;10983;51.982;9.226;2022-12-07T08:31:13;5.45;;;4.25;;
21643;SDS011;10983;51.982;9.226;2022-12-07T08:33:44;19.65;;;13.35;;
21643;SDS011;10983;51.982;9.226;2022-12-07T08:36:13;5.90;;;3.17;;
21643;SDS011;10983;51.982;9.226;2022-12-07T08:38:46;12.32;;;2.85;;
21643;SDS011;10983;51.982;9.226;2022-12-07T08:41:34;1.77;;;1.65;;
21643;SDS011;10983;51.982;9.226;2022-12-07T08:44:02;1.95;;;1.85;;
21643;SDS011;10983;51.982;9.226;2022-12-07T08:46:32;4.72;;;4.07;;
21643;SDS011;10983;51.982;9.226;2022-12-07T08:49:05;2.33;;;2.10;;
21643;SDS011;10983;51.982;9.226;2022-12-07T08:51:37;4.30;;;3.22;;
21643;SDS011;10983;51.982;9.226;2022-12-07T08:54:06;3.60;;;3.28;;
21643;SDS011;10983;51.982;9.226;2022-12-07T08:56:36;4.55;;;3.40;;
21643;SDS011;10983;51.982;9.226;2022-12-07T08:59:04;3.33;;;3.10;;
21643;SDS011;10983;51.982;9.226;2022-12-07T09:01:41;2.47;;;2.28;;
21643;SDS011;10983;51.982;9.226;2022-12-07T09:04:09;6.90;;;2.45;;
21643;SDS011;10983;51.982;9.226;2022-12-07T09:06:38;2.55;;;1.85;;
21643;SDS011;10983;51.982;9.226;2022-12-07T09:09:06;2.95;;;2.75;;
21643;SDS011;10983;51.982;9.226;2022-12-07T09:11:34;2.67;;;2.47;;
21643;SDS011;10983;51.982;9.226;2022-12-07T09:14:02;3.35;;;2.92;;
21643;SDS011;10983;51.982;9.226;2022-12-07T09:16:30;2.38;;;2.22;;
21643;SDS011;10983;51.982;9.226;2022-12-07T09:18:59;3.47;;;2.42;;
21643;SDS011;10983;51.982;9.226;2022-12-07T09:21:26;9.10;;;4.82;;
21643;SDS011;10983;51.982;9.226;2022-12-07T09:23:54;4.00;;;3.47;;
21643;SDS011;10983;51.982;9.226;2022-12-07T09:26:21;5.93;;;2.38;;
21643;SDS011;10983;51.982;9.226;2022-12-07T09:28:49;9.00;;;3.30;;
21643;SDS011;10983;51.982;9.226;2022-12-07T09:31:16;4.47;;;2.35;;
21643;SDS011;10983;51.982;9.226;2022-12-07T09:33:52;3.40;;;0.93;;
21643;SDS011;10983;51.982;9.226;2022-12-07T09:36:22;3.47;;;3.05;;
21643;SDS011;10983;51.982;9.226;2022-12-07T09:38:50;3.63;;;3.20;;
21643;SDS011;10983;51.982;9.226;2022-12-07T09:41:17;11.77;;;4.07;;
21643;SDS011;10983;51.982;9.226;2022-12-07T09:43:46;4.15;;;3.80;;
21643;SDS011;10983;51.982;9.226;2022-12-07T09:46:15;2.00;;;1.88;;
21643;SDS011;10983;51.982;9.226;2022-12-07T09:48:45;3.55;;;1.70;;
21643;SDS011;10983;51.982;9.226;2022-12-07T09:51:14;1.02;;;1.02;;
21643;SDS011;10983;51.982;9.226;2022-12-07T09:53:51;0.60;;;0.60;;
21643;SDS011;10983;51.982;9.226;2022-12-07T09:56:20;4.40;;;2.40;;
21643;SDS011;10983;51.982;9.226;2022-12-07T09:58:50;1.48;;;1.15;;
21643;SDS011;10983;51.982;9.226;2022-12-07T10:01:22;3.40;;;2.83;;
21643;SDS011;10983;51.982;9.226;2022-12-07T10:03:50;3.05;;;1.90;;
21643;SDS011;10983;51.982;9.226;2022-12-07T10:06:20;10.38;;;3.00;;
21643;SDS011;10983;51.982;9.226;2022-12-07T10:08:48;1.80;;;1.70;;
21643;SDS011;10983;51.982;9.226;2022-12-07T10:11:16;3.78;;;2.50;;
21643;SDS011;10983;51.982;9.226;2022-12-07T10:13:45;2.35;;;2.15;;
21643;SDS011;10983;51.982;9.226;2022-12-07T10:16:31;0.65;;;0.65;;
21643;SDS011;10983;51.982;9.226;2022-12-07T10:19:18;0.98;;;0.95;;
21643;SDS011;10983;51.982;9.226;2022-12-07T10:21:59;2.92;;;2.47;;
21643;SDS011;10983;51.982;9.226;2022-12-07T10:24:32;3.50;;;2.73;;
21643;SDS011;10983;51.982;9.226;2022-12-07T10:27:01;9.15;;;2.65;;
21643;SDS011;10983;51.982;9.226;2022-12-07T10:29:30;3.75;;;1.20;;
21643;SDS011;10983;51.982;9.226;2022-12-07T10:31:59;5.13;;;2.85;;
21643;SDS011;10983;51.982;9.226;2022-12-07T10:34:30;1.27;;;1.25;;
21643;SDS011;10983;51.982;9.226;2022-12-07T10:37:12;1.83;;;1.70;;
21643;SDS011;10983;51.982;9.226;2022-12-07T10:39:42;11.48;;;2.13;;
21643;SDS011;10983;51.982;9.226;2022-12-07T10:42:17;1.58;;;1.48;;
21643;SDS011;10983;51.982;9.226;2022-12-07T10:44:47;3.33;;;2.58;;
21643;SDS011;10983;51.982;9.226;2022-12-07T10:47:24;1.27;;;1.27;;
21643;SDS011;10983;51.982;9.226;2022-12-07T10:50:11;1.63;;;1.20;;
21643;SDS011;10983;51.982;9.226;2022-12-07T10:52:50;1.40;;;1.30;;
21643;SDS011;10983;51.982;9.226;2022-12-07T10:55:29;1.00;;;1.00;;
21643;SDS011;10983;51.982;9.226;2022-12-07T10:58:16;3.63;;;2.25;;
21643;SDS011;10983;51.982;9.226;2022-12-07T11:00:57;0.88;;;0.88;;
21643;SDS011;10983;51.982;9.226;2022-12-07T11:03:41;1.13;;;0.80;;
21643;SDS011;10983;51.982;9.226;2022-12-07T11:06:16;0.93;;;0.93;;
21643;SDS011;10983;51.982;9.226;2022-12-07T11:08:55;2.13;;;1.90;;
21643;SDS011;10983;51.982;9.226;2022-12-07T11:11:32;1.80;;;1.50;;
21643;SDS011;10983;51.982;9.226;2022-12-07T11:16:43;8.18;;;1.50;;
21643;SDS011;10983;51.982;9.226;2022-12-07T11:19:29;5.80;;;1.90;;
21643;SDS011;10983;51.982;9.226;2022-12-07T11:22:09;7.32;;;2.88;;
21643;SDS011;10983;51.982;9.226;2022-12-07T11:24:46;1.88;;;1.23;;
21643;SDS011;10983;51.982;9.226;2022-12-07T11:27:22;3.20;;;0.85;;
21643;SDS011;10983;51.982;9.226;2022-12-07T11:30:01;2.30;;;2.10;;
21643;SDS011;10983;51.982;9.226;2022-12-07T11:32:49;1.60;;;1.50;;
21643;SDS011;10983;51.982;9.226;2022-12-07T11:35:26;1.02;;;1.02;;
21643;SDS011;10983;51.982;9.226;2022-12-07T11:38:07;2.75;;;1.25;;
21643;SDS011;10983;51.982;9.226;2022-12-07T11:40:38;2.20;;;2.10;;
21643;SDS011;10983;51.982;9.226;2022-12-07T11:43:13;1.50;;;1.40;;
21643;SDS011;10983;51.982;9.226;2022-12-07T11:45:52;3.00;;;2.00;;
21643;SDS011;10983;51.982;9.226;2022-12-07T11:48:29;2.60;;;1.38;;
21643;SDS011;10983;51.982;9.226;2022-12-07T11:51:01;2.20;;;2.03;;
21643;SDS011;10983;51.982;9.226;2022-12-07T11:53:32;1.67;;;1.13;;
21643;SDS011;10983;51.982;9.226;2022-12-07T11:56:08;15.07;;;1.92;;
21643;SDS011;10983;51.982;9.226;2022-12-07T11:58:42;4.28;;;1.15;;
21643;SDS011;10983;51.982;9.226;2022-12-07T12:01:21;2.70;;;2.47;;
21643;SDS011;10983;51.982;9.226;2022-12-07T12:03:58;0.82;;;0.82;;
21643;SDS011;10983;51.982;9.226;2022-12-07T12:06:32;0.60;;;0.60;;
21643;SDS011;10983;51.982;9.226;2022-12-07T12:09:02;15.25;;;1.67;;
21643;SDS011;10983;51.982;9.226;2022-12-07T12:12:02;4.07;;;1.02;;
21643;SDS011;10983;51.982;9.226;2022-12-07T12:15:14;0.95;;;0.95;;
21643;SDS011;10983;51.982;9.226;2022-12-07T12:17:57;0.70;;;0.70;;
21643;SDS011;10983;51.982;9.226;2022-12-07T12:20:37;1.35;;;1.25;;
21643;SDS011;10983;51.982;9.226;2022-12-07T12:23:12;0.60;;;0.60;;
21643;SDS011;10983;51.982;9.226;2022-12-07T12:25:44;1.67;;;1.45;;
21643;SDS011;10983;51.982;9.226;2022-12-07T12:28:22;4.00;;;2.17;;
21643;SDS011;10983;51.982;9.226;2022-12-07T12:31:05;16.65;;;1.80;;
21643;SDS011;10983;51.982;9.226;2022-12-07T12:33:37;1.27;;;1.17;;
21643;SDS011;10983;51.982;9.226;2022-12-07T12:36:19;0.68;;;0.68;;
21643;SDS011;10983;51.982;9.226;2022-12-07T12:39:07;0.90;;;0.90;;
21643;SDS011;10983;51.982;9.226;2022-12-07T12:41:53;0.70;;;0.70;;
21643;SDS011;10983;51.982;9.226;2022-12-07T12:47:42;2.42;;;1.67;;
21643;SDS011;10983;51.982;9.226;2022-12-07T12:50:27;3.05;;;2.05;;
21643;SDS011;10983;51.982;9.226;2022-12-07T12:53:04;8.90;;;1.17;;
21643;SDS011;10983;51.982;9.226;2022-12-07T13:01:50;0.95;;;0.95;;
21643;SDS011;10983;51.982;9.226;2022-12-07T13:04:26;2.47;;;2.10;;
21643;SDS011;10983;51.982;9.226;2022-12-07T13:07:47;1.33;;;0.93;;
21643;SDS011;10983;51.982;9.226;2022-12-07T13:10:21;1.67;;;1.00;;
21643;SDS011;10983;51.982;9.226;2022-12-07T13:12:56;1.65;;;1.55;;
21643;SDS011;10983;51.982;9.226;2022-12-07T13:15:31;0.70;;;0.70;;
21643;SDS011;10983;51.982;9.226;2022-12-07T13:20:53;1.30;;;1.17;;
21643;SDS011;10983;51.982;9.226;2022-12-07T13:23:26;7.35;;;2.05;;
21643;SDS011;10983;51.982;9.226;2022-12-07T13:26:01;0.65;;;0.65;;
21643;SDS011;10983;51.982;9.226;2022-12-07T13:28:43;0.90;;;0.90;;
21643;SDS011;10983;51.982;9.226;2022-12-07T13:34:00;0.80;;;0.80;;
21643;SDS011;10983;51.982;9.226;2022-12-07T13:36:31;0.57;;;0.57;;
21643;SDS011;10983;51.982;9.226;2022-12-07T13:39:16;1.58;;;1.13;;
21643;SDS011;10983;51.982;9.226;2022-12-07T13:41:49;0.57;;;0.57;;
21643;SDS011;10983;51.982;9.226;2022-12-07T13:44:18;6.20;;;1.60;;
21643;SDS011;10983;51.982;9.226;2022-12-07T13:46:49;1.08;;;0.85;;
21643;SDS011;10983;51.982;9.226;2022-12-07T13:49:26;1.15;;;1.10;;
21643;SDS011;10983;51.982;9.226;2022-12-07T13:52:11;3.72;;;1.52;;
21643;SDS011;10983;51.982;9.226;2022-12-07T13:54:48;2.42;;;1.50;;
21643;SDS011;10983;51.982;9.226;2022-12-07T13:57:22;1.13;;;1.02;;
21643;SDS011;10983;51.982;9.226;2022-12-07T13:59:52;2.15;;;1.05;;
21643;SDS011;10983;51.982;9.226;2022-12-07T14:02:21;0.60;;;0.60;;
21643;SDS011;10983;51.982;9.226;2022-12-07T14:05:06;10.70;;;1.27;;
21643;SDS011;10983;51.982;9.226;2022-12-07T14:07:34;1.10;;;0.73;;
21643;SDS011;10983;51.982;9.226;2022-12-07T14:10:05;1.38;;;1.27;;
21643;SDS011;10983;51.982;9.226;2022-12-07T14:12:35;4.90;;;1.15;;
21643;SDS011;10983;51.982;9.226;2022-12-07T14:15:05;7.20;;;1.67;;
21643;SDS011;10983;51.982;9.226;2022-12-07T14:17:49;1.05;;;1.02;;
21643;SDS011;10983;51.982;9.226;2022-12-07T14:20:31;0.57;;;0.55;;
21643;SDS011;10983;51.982;9.226;2022-12-07T14:23:00;0.52;;;0.52;;
21643;SDS011;10983;51.982;9.226;2022-12-07T14:25:45;2.83;;;1.50;;
21643;SDS011;10983;51.982;9.226;2022-12-07T14:28:24;3.05;;;1.13;;
21643;SDS011;10983;51.982;9.226;2022-12-07T14:30:53;2.28;;;0.40;;
21643;SDS011;10983;51.982;9.226;2022-12-07T14:33:22;5.28;;;1.17;;
21643;SDS011;10983;51.982;9.226;2022-12-07T14:35:50;3.40;;;1.05;;
21643;SDS011;10983;51.982;9.226;2022-12-07T14:38:21;1.90;;;1.70;;
21643;SDS011;10983;51.982;9.226;2022-12-07T14:40:50;1.58;;;1.27;;
21643;SDS011;10983;51.982;9.226;2022-12-07T14:43:24;0.57;;;0.57;;
21643;SDS011;10983;51.982;9.226;2022-12-07T14:45:53;8.48;;;1.25;;
21643;SDS011;10983;51.982;9.226;2022-12-07T14:48:23;4.43;;;1.15;;
21643;SDS011;10983;51.982;9.226;2022-12-07T14:51:11;1.33;;;1.15;;
21643;SDS011;10983;51.982;9.226;2022-12-07T14:53:59;7.15;;;2.20;;
21643;SDS011;10983;51.982;9.226;2022-12-07T14:56:28;0.93;;;0.65;;
21643;SDS011;10983;51.982;9.226;2022-12-07T14:58:56;1.92;;;0.73;;
21643;SDS011;10983;51.982;9.226;2022-12-07T15:01:23;0.80;;;0.80;;
21643;SDS011;10983;51.982;9.226;2022-12-07T15:03:51;0.50;;;0.50;;
21643;SDS011;10983;51.982;9.226;2022-12-07T15:06:19;1.63;;;0.90;;
21643;SDS011;10983;51.982;9.226;2022-12-07T15:08:46;0.30;;;0.30;;
21643;SDS011;10983;51.982;9.226;2022-12-07T15:11:14;5.53;;;0.68;;
21643;SDS011;10983;51.982;9.226;2022-12-07T15:13:44;5.65;;;1.67;;
21643;SDS011;10983;51.982;9.226;2022-12-07T15:16:29;12.20;;;1.75;;
21643;SDS011;10983;51.982;9.226;2022-12-07T15:19:18;0.70;;;0.70;;
21643;SDS011;10983;51.982;9.226;2022-12-07T15:21:53;2.08;;;1.17;;
21643;SDS011;10983;51.982;9.226;2022-12-07T15:24:21;2.20;;;1.52;;
21643;SDS011;10983;51.982;9.226;2022-12-07T15:26:51;1.48;;;1.02;;
21643;SDS011;10983;51.982;9.226;2022-12-07T15:29:20;0.90;;;0.47;;
21643;SDS011;10983;51.982;9.226;2022-12-07T15:31:49;9.70;;;2.97;;
21643;SDS011;10983;51.982;9.226;2022-12-07T15:34:23;0.80;;;0.80;;
21643;SDS011;10983;51.982;9.226;2022-12-07T15:36:51;1.75;;;1.33;;